createdAt,value
2019-02-28T00:00:29.210Z,1.73
2019-02-28T00:02:57.705Z,1.69
2019-02-28T00:05:26.306Z,1.70
2019-02-28T00:07:54.926Z,1.64
2019-02-28T00:10:23.490Z,1.64
2019-02-28T00:12:52.017Z,1.71
2019-02-28T00:15:20.654Z,1.66
2019-02-28T00:17:49.281Z,1.61
2019-02-28T00:20:17.867Z,1.62
2019-02-28T00:22:49.233Z,1.71
2019-02-28T00:25:16.695Z,1.72
2019-02-28T00:27:45.370Z,1.62
2019-02-28T00:30:15.985Z,1.56
2019-02-28T00:32:44.465Z,1.57
2019-02-28T00:35:14.104Z,1.52
2019-02-28T00:37:42.772Z,1.52
2019-02-28T00:40:11.791Z,1.56
2019-02-28T00:42:40.557Z,1.56
2019-02-28T00:45:14.200Z,1.56
2019-02-28T00:47:42.916Z,1.60
2019-02-28T00:50:11.829Z,1.54
2019-02-28T00:52:40.474Z,1.47
2019-02-28T00:55:15.249Z,1.52
2019-02-28T00:57:44.442Z,1.41
2019-02-28T01:00:18.605Z,1.35
2019-02-28T01:02:52.022Z,1.30
2019-02-28T01:05:17.587Z,1.24
2019-02-28T01:07:48.150Z,1.15
2019-02-28T01:10:17.011Z,1.11
2019-02-28T01:12:45.675Z,1.06
2019-02-28T01:15:18.309Z,1.04
2019-02-28T01:17:46.857Z,1.02
2019-02-28T01:20:16.694Z,1.00
2019-02-28T01:22:45.418Z,0.96
2019-02-28T01:25:20.210Z,0.94
2019-02-28T01:27:49.139Z,0.88
2019-02-28T01:30:17.996Z,0.83
2019-02-28T01:32:49.627Z,0.80
2019-02-28T01:35:17.450Z,0.79
2019-02-28T01:37:46.007Z,0.81
2019-02-28T01:40:16.197Z,0.71
2019-02-28T01:42:44.844Z,0.69
2019-02-28T01:45:13.961Z,0.66
2019-02-28T01:47:42.578Z,0.66
2019-02-28T01:50:12.339Z,0.66
2019-02-28T01:52:44.480Z,0.70
2019-02-28T01:55:12.046Z,0.75
2019-02-28T01:57:44.068Z,0.77
2019-02-28T02:00:16.600Z,0.78
2019-02-28T02:02:45.147Z,0.85
2019-02-28T02:05:16.953Z,0.89
2019-02-28T02:07:44.640Z,0.93
2019-02-28T02:10:21.307Z,0.94
2019-02-28T02:12:48.025Z,0.87
2019-02-28T02:15:17.039Z,0.84
2019-02-28T02:17:46.450Z,0.83
2019-02-28T02:20:16.100Z,0.89
2019-02-28T02:22:45.468Z,0.93
2019-02-28T02:25:14.799Z,0.92
2019-02-28T02:27:52.811Z,0.95
2019-02-28T02:30:22.086Z,0.99
2019-02-28T02:32:50.760Z,0.97
2019-02-28T02:35:19.504Z,0.86
2019-02-28T02:37:48.125Z,0.73
2019-02-28T02:40:17.261Z,0.77
2019-02-28T02:42:48.658Z,0.82
2019-02-28T02:45:16.392Z,0.77
2019-02-28T02:47:44.951Z,0.74
2019-02-28T02:50:14.772Z,0.77
2019-02-28T02:52:43.731Z,0.89
2019-02-28T02:55:12.677Z,0.90
2019-02-28T02:57:41.171Z,0.92
2019-02-28T03:00:13.804Z,1.04
2019-02-28T03:02:43.162Z,1.08
2019-02-28T03:05:11.794Z,1.08
2019-02-28T03:07:40.307Z,1.07
2019-02-28T03:10:11.818Z,1.08
2019-02-28T03:12:40.456Z,1.09
2019-02-28T03:15:11.589Z,1.05
2019-02-28T03:17:46.698Z,1.06
2019-02-28T03:20:12.300Z,1.11
2019-02-28T03:22:40.917Z,1.06
2019-02-28T03:25:12.135Z,1.02
2019-02-28T03:27:40.754Z,0.98
2019-02-28T03:30:28.415Z,0.96
2019-02-28T03:32:49.953Z,0.94
2019-02-28T03:35:18.562Z,0.91
2019-02-28T03:37:47.176Z,0.98
2019-02-28T03:40:16.010Z,1.00
2019-02-28T03:42:44.713Z,0.99
2019-02-28T03:45:16.169Z,1.00
2019-02-28T03:47:44.767Z,1.02
2019-02-28T03:50:13.817Z,1.06
2019-02-28T03:52:44.205Z,1.08
2019-02-28T03:55:14.059Z,1.07
2019-02-28T03:57:42.872Z,0.95
2019-02-28T04:00:17.356Z,0.89
2019-02-28T04:02:45.992Z,0.93
2019-02-28T04:05:14.619Z,0.91
2019-02-28T04:07:43.464Z,0.81
2019-02-28T04:10:16.849Z,0.84
2019-02-28T04:12:45.622Z,0.80
2019-02-28T04:15:18.680Z,0.83
2019-02-28T04:17:47.297Z,0.79
2019-02-28T04:20:15.926Z,0.75
2019-02-28T04:22:44.513Z,0.65
2019-02-28T04:25:13.242Z,0.62
2019-02-28T04:27:42.007Z,0.51
2019-02-28T04:30:17.419Z,0.46
2019-02-28T04:32:46.034Z,0.41
2019-02-28T04:35:14.665Z,0.38
2019-02-28T04:37:46.514Z,0.28
2019-02-28T04:40:14.010Z,0.30
2019-02-28T04:42:42.634Z,0.28
2019-02-28T04:45:14.737Z,0.29
2019-02-28T04:47:43.295Z,0.27
2019-02-28T04:50:14.073Z,0.17
2019-02-28T04:52:47.942Z,0.19
2019-02-28T04:55:13.410Z,0.17
2019-02-28T04:57:41.911Z,0.18
2019-02-28T05:00:18.453Z,0.19
2019-02-28T05:02:47.021Z,0.15
2019-02-28T05:05:15.647Z,0.17
2019-02-28T05:07:44.476Z,0.11
2019-02-28T05:10:13.222Z,0.14
2019-02-28T05:12:41.838Z,0.21
2019-02-28T05:15:14.495Z,0.20
2019-02-28T05:17:43.135Z,0.30
2019-02-28T05:20:12.448Z,0.42
2019-02-28T05:22:41.303Z,0.72
2019-02-28T05:25:17.363Z,1.06
2019-02-28T05:27:43.135Z,1.49
2019-02-28T05:30:19.439Z,1.88
2019-02-28T05:32:46.458Z,2.31
2019-02-28T05:35:15.084Z,2.71
2019-02-28T05:37:47.382Z,3.20
2019-02-28T05:40:15.406Z,3.70
2019-02-28T05:42:44.018Z,4.10
2019-02-28T05:45:14.871Z,4.62
2019-02-28T05:47:46.758Z,5.08
2019-02-28T05:50:16.617Z,5.50
2019-02-28T05:55:24.442Z,6.33
2019-02-28T05:57:49.636Z,6.71
2019-02-28T06:00:19.844Z,7.23
2019-02-28T06:02:48.922Z,7.74
2019-02-28T06:05:17.552Z,7.69
2019-02-28T06:07:46.170Z,7.80
2019-02-28T06:10:15.923Z,8.16
2019-02-28T06:12:45.025Z,8.74
2019-02-28T06:15:15.474Z,8.92
2019-02-28T06:17:44.064Z,8.91
2019-02-28T06:20:16.327Z,8.97
2019-02-28T06:22:43.942Z,8.73
2019-02-28T06:25:22.495Z,8.74
2019-02-28T06:27:49.001Z,8.80
2019-02-28T06:30:16.681Z,9.09
2019-02-28T06:32:45.336Z,9.42
2019-02-28T06:35:17.813Z,9.88
2019-02-28T06:37:51.933Z,10.10
2019-02-28T06:40:20.564Z,10.00
2019-02-28T06:42:49.192Z,10.17
2019-02-28T06:45:19.737Z,9.69
2019-02-28T06:47:49.981Z,9.45
2019-02-28T06:50:18.850Z,9.49
2019-02-28T06:52:47.411Z,9.22
2019-02-28T06:55:20.465Z,9.91
2019-02-28T06:57:49.091Z,10.19
2019-02-28T07:00:18.548Z,9.92
2019-02-28T07:02:47.087Z,10.20
2019-02-28T07:05:15.716Z,10.34
2019-02-28T07:07:45.881Z,10.31
2019-02-28T07:10:16.238Z,10.39
2019-02-28T07:12:44.856Z,10.00
2019-02-28T07:15:14.517Z,9.84
2019-02-28T07:17:46.612Z,10.15
2019-02-28T07:20:16.099Z,10.36
2019-02-28T07:22:44.771Z,10.05
2019-02-28T07:25:13.878Z,10.27
2019-02-28T07:27:42.635Z,10.23
2019-02-28T07:30:18.429Z,10.40
2019-02-28T07:32:47.282Z,10.19
2019-02-28T07:35:15.885Z,9.79
2019-02-28T07:37:44.418Z,9.93
2019-02-28T07:40:16.095Z,10.93
2019-02-28T07:42:45.598Z,11.00
2019-02-28T07:45:15.172Z,10.07
2019-02-28T07:47:43.830Z,10.29
2019-02-28T07:50:16.520Z,10.57
2019-02-28T07:52:45.196Z,10.71
2019-02-28T07:55:19.093Z,10.08
2019-02-28T07:57:51.307Z,9.94
2019-02-28T08:00:41.173Z,9.77
2019-02-28T08:03:11.256Z,9.90
2019-02-28T08:05:40.423Z,9.53
2019-02-28T08:08:09.049Z,9.78
2019-02-28T08:10:37.686Z,9.68
2019-02-28T08:13:06.398Z,9.67
2019-02-28T08:15:34.941Z,9.87
2019-02-28T08:18:05.747Z,9.80
2019-02-28T08:20:34.803Z,10.20
2019-02-28T08:23:03.334Z,10.10
2019-02-28T08:25:31.901Z,10.06
2019-02-28T08:28:00.877Z,9.88
2019-02-28T08:30:34.112Z,10.22
2019-02-28T08:33:08.804Z,10.56
2019-02-28T08:35:37.448Z,10.12
2019-02-28T08:38:06.878Z,9.86
2019-02-28T08:40:36.030Z,9.97
2019-02-28T08:43:04.643Z,10.02
2019-02-28T08:45:34.433Z,10.08
2019-02-28T08:48:03.356Z,10.19
2019-02-28T08:50:31.987Z,10.32
2019-02-28T08:53:05.080Z,10.29
2019-02-28T08:55:33.845Z,10.39
2019-02-28T08:58:06.208Z,10.16
2019-02-28T09:00:33.390Z,10.50
2019-02-28T09:03:02.113Z,10.27
2019-02-28T09:05:30.761Z,10.01
2019-02-28T09:07:59.379Z,9.87
2019-02-28T09:10:28.149Z,10.04
2019-02-28T09:12:56.802Z,10.16
2019-02-28T09:15:30.053Z,10.19
2019-02-28T09:17:59.441Z,10.02
2019-02-28T09:20:26.436Z,10.08
2019-02-28T09:22:55.144Z,9.83
2019-02-28T09:25:26.835Z,10.18
2019-02-28T09:27:55.275Z,9.99
2019-02-28T09:30:38.701Z,10.06
2019-02-28T09:33:07.343Z,9.97
2019-02-28T09:35:36.058Z,9.79
2019-02-28T09:38:07.622Z,9.84
2019-02-28T09:40:35.202Z,9.88
2019-02-28T09:43:03.823Z,9.97
2019-02-28T09:45:33.600Z,10.21
2019-02-28T09:48:02.437Z,10.09
2019-02-28T09:50:34.226Z,10.13
2019-02-28T09:53:02.868Z,10.24
2019-02-28T09:55:35.254Z,10.25
2019-02-28T09:58:01.840Z,10.31
2019-02-28T10:00:30.975Z,10.13
2019-02-28T10:02:59.693Z,10.45
2019-02-28T10:05:28.208Z,10.32
2019-02-28T10:08:01.662Z,10.68
2019-02-28T10:10:28.967Z,10.69
2019-02-28T10:12:57.595Z,10.62
2019-02-28T10:15:26.632Z,10.45
2019-02-28T10:17:55.499Z,10.52
2019-02-28T10:20:28.536Z,10.81
2019-02-28T10:22:57.566Z,10.79
2019-02-28T10:25:41.043Z,10.84
2019-02-28T10:28:05.646Z,10.97
2019-02-28T10:30:34.351Z,11.18
2019-02-28T10:33:02.956Z,11.17
2019-02-28T10:35:33.471Z,11.02
2019-02-28T10:38:01.931Z,11.06
2019-02-28T10:40:31.428Z,11.01
2019-02-28T10:43:00.076Z,11.27
2019-02-28T10:45:28.885Z,11.31
2019-02-28T10:48:02.841Z,11.14
2019-02-28T10:50:36.141Z,11.18
2019-02-28T10:53:06.038Z,11.17
2019-02-28T10:55:35.104Z,11.07
2019-02-28T10:58:04.302Z,11.11
2019-02-28T11:00:39.851Z,11.18
2019-02-28T11:03:08.494Z,11.26
2019-02-28T11:05:38.882Z,11.26
2019-02-28T11:08:19.790Z,11.49
2019-02-28T11:10:48.464Z,11.56
2019-02-28T11:13:21.357Z,11.56
2019-02-28T11:15:50.585Z,11.64
2019-02-28T11:18:22.238Z,11.61
2019-02-28T11:20:50.873Z,11.58
2019-02-28T11:23:21.012Z,11.73
2019-02-28T11:25:49.576Z,11.88
2019-02-28T11:28:19.572Z,12.03
2019-02-28T11:30:49.018Z,12.07
2019-02-28T11:33:19.052Z,11.76
2019-02-28T11:35:47.980Z,11.55
2019-02-28T11:38:20.399Z,11.68
2019-02-28T11:40:46.994Z,11.76
2019-02-28T11:43:15.619Z,11.95
2019-02-28T11:45:46.625Z,12.10
2019-02-28T11:48:26.885Z,12.07
2019-02-28T11:50:55.759Z,11.94
2019-02-28T11:53:28.562Z,11.81
2019-02-28T11:55:57.212Z,11.88
2019-02-28T11:58:25.784Z,12.03
2019-02-28T12:00:54.608Z,12.12
2019-02-28T12:03:23.306Z,12.19
2019-02-28T12:05:52.024Z,12.22
2019-02-28T12:08:22.321Z,12.32
2019-02-28T12:10:51.106Z,12.50
2019-02-28T12:13:20.590Z,12.68
2019-02-28T12:15:49.383Z,12.65
2019-02-28T12:18:18.013Z,12.64
2019-02-28T12:20:46.651Z,12.44
2019-02-28T12:23:15.403Z,12.62
2019-02-28T12:25:44.047Z,12.48
2019-02-28T12:28:12.806Z,12.65
2019-02-28T12:30:41.737Z,12.70
2019-02-28T12:33:10.348Z,12.80
2019-02-28T12:35:40.609Z,12.84
2019-02-28T12:38:09.392Z,12.80
2019-02-28T12:40:45.282Z,12.87
2019-02-28T12:43:13.927Z,12.87
2019-02-28T12:45:47.253Z,12.90
2019-02-28T12:48:15.550Z,12.88
2019-02-28T12:50:44.153Z,13.09
2019-02-28T12:53:12.658Z,13.19
2019-02-28T12:55:41.449Z,12.99
2019-02-28T12:58:10.070Z,13.13
2019-02-28T13:00:43.031Z,13.16
2019-02-28T13:03:11.781Z,13.13
2019-02-28T13:05:40.418Z,13.11
2019-02-28T13:08:09.143Z,12.96
2019-02-28T13:10:38.993Z,12.85
2019-02-28T13:13:08.043Z,12.99
2019-02-28T13:15:37.026Z,12.98
2019-02-28T13:18:09.079Z,13.14
2019-02-28T13:20:38.378Z,13.03
2019-02-28T13:23:07.034Z,13.08
2019-02-28T13:25:35.664Z,13.11
2019-02-28T13:28:05.089Z,13.14
2019-02-28T13:30:33.736Z,13.24
2019-02-28T13:33:02.512Z,13.18
2019-02-28T13:35:36.932Z,13.14
2019-02-28T13:38:05.566Z,13.33
2019-02-28T13:40:34.273Z,13.38
2019-02-28T13:43:02.906Z,13.45
2019-02-28T13:45:31.695Z,13.37
2019-02-28T13:48:00.249Z,13.45
2019-02-28T13:50:37.964Z,13.48
2019-02-28T13:53:17.234Z,13.43
2019-02-28T13:55:38.793Z,13.24
2019-02-28T13:58:07.597Z,13.35
2019-02-28T14:00:43.721Z,13.20
2019-02-28T14:03:12.321Z,13.05
2019-02-28T14:05:41.675Z,13.04
2019-02-28T14:08:12.145Z,13.08
2019-02-28T14:10:41.220Z,13.06
2019-02-28T14:13:10.082Z,13.09
2019-02-28T14:15:47.972Z,13.08
2019-02-28T14:18:16.195Z,12.96
2019-02-28T14:20:44.831Z,12.99
2019-02-28T14:23:13.636Z,12.95
2019-02-28T14:25:42.269Z,12.79
2019-02-28T14:28:10.903Z,12.89
2019-02-28T14:30:39.820Z,12.84
2019-02-28T14:33:08.950Z,12.92
2019-02-28T14:35:38.617Z,12.96
2019-02-28T14:38:07.623Z,12.86
2019-02-28T14:40:36.266Z,12.78
2019-02-28T14:43:04.950Z,12.70
2019-02-28T14:45:42.922Z,12.79
2019-02-28T14:48:09.704Z,12.73
2019-02-28T14:50:38.509Z,12.73
2019-02-28T14:53:07.303Z,12.69
2019-02-28T14:55:37.387Z,12.70
2019-02-28T14:58:06.214Z,12.64
2019-02-28T15:00:35.683Z,12.58
2019-02-28T15:03:14.797Z,12.49
2019-02-28T15:05:44.179Z,12.29
2019-02-28T15:08:15.393Z,12.35
2019-02-28T15:10:43.440Z,12.40
2019-02-28T15:13:12.112Z,12.32
2019-02-28T15:15:40.695Z,12.27
2019-02-28T15:18:10.972Z,12.23
2019-02-28T15:20:40.154Z,12.19
2019-02-28T15:23:08.785Z,12.16
2019-02-28T15:25:37.335Z,12.05
2019-02-28T15:28:06.012Z,11.94
2019-02-28T15:30:36.952Z,11.96
2019-02-28T15:33:05.670Z,11.83
2019-02-28T15:35:34.350Z,11.77
2019-02-28T15:38:05.815Z,11.73
2019-02-28T15:40:36.318Z,11.60
2019-02-28T15:43:05.179Z,11.55
2019-02-28T15:45:36.318Z,11.52
2019-02-28T15:48:04.183Z,11.48
2019-02-28T15:50:32.864Z,11.38
2019-02-28T15:53:01.506Z,11.30
2019-02-28T15:55:30.336Z,11.25
2019-02-28T15:57:59.001Z,11.24
2019-02-28T16:00:35.275Z,11.04
2019-02-28T16:03:04.096Z,10.95
2019-02-28T16:05:32.739Z,10.83
2019-02-28T16:08:01.563Z,10.72
2019-02-28T16:10:35.022Z,10.67
2019-02-28T16:13:05.240Z,10.66
2019-02-28T16:15:33.877Z,10.59
2019-02-28T16:18:02.749Z,10.51
2019-02-28T16:20:31.908Z,10.43
2019-02-28T16:23:01.640Z,10.34
2019-02-28T16:25:40.111Z,10.24
2019-02-28T16:28:09.249Z,10.14
2019-02-28T16:30:38.622Z,10.05
2019-02-28T16:33:07.561Z,10.10
2019-02-28T16:35:36.229Z,10.06
2019-02-28T16:38:06.534Z,10.00
2019-02-28T16:40:35.521Z,9.99
2019-02-28T16:43:04.234Z,9.95
2019-02-28T16:45:41.805Z,9.97
2019-02-28T16:48:10.457Z,9.96
2019-02-28T16:50:39.017Z,9.92
2019-02-28T16:53:07.637Z,9.87
2019-02-28T16:55:36.423Z,9.79
2019-02-28T16:58:05.133Z,9.75
2019-02-28T17:00:33.805Z,9.62
2019-02-28T17:03:04.101Z,9.47
2019-02-28T17:05:32.830Z,9.42
2019-02-28T17:08:01.539Z,9.34
2019-02-28T17:10:31.855Z,9.36
2019-02-28T17:13:18.076Z,9.21
2019-02-28T17:15:51.537Z,9.09
2019-02-28T17:18:31.153Z,9.12
2019-02-28T17:20:59.821Z,8.98
2019-02-28T17:23:28.310Z,8.97
2019-02-28T17:25:57.603Z,8.96
2019-02-28T17:28:34.028Z,9.08
2019-02-28T17:34:25.276Z,9.44
2019-02-28T17:36:53.989Z,9.51
2019-02-28T17:39:22.670Z,9.58
2019-02-28T17:41:51.347Z,9.66
2019-02-28T17:44:28.874Z,9.62
2019-02-28T17:47:06.623Z,9.68
2019-02-28T17:49:59.990Z,9.73
2019-02-28T17:52:34.461Z,9.77
2019-02-28T17:55:31.073Z,9.82
2019-02-28T17:58:06.156Z,10.03
2019-02-28T18:00:48.153Z,10.00
2019-02-28T18:03:33.104Z,10.00
2019-02-28T18:06:13.586Z,10.07
2019-02-28T18:09:12.687Z,10.06
2019-02-28T18:12:27.792Z,10.08
2019-02-28T18:15:08.882Z,10.03
2019-02-28T18:17:46.796Z,9.97
2019-02-28T18:20:47.340Z,9.97
2019-02-28T18:23:36.981Z,10.06
2019-02-28T18:26:25.735Z,10.13
2019-02-28T18:29:01.853Z,10.22
2019-02-28T18:31:30.280Z,10.37
2019-02-28T18:34:00.133Z,10.36
2019-02-28T18:36:30.450Z,10.33
2019-02-28T18:38:59.016Z,10.37
2019-02-28T18:41:27.832Z,10.37
2019-02-28T18:43:56.662Z,10.37
2019-02-28T18:46:29.528Z,10.45
2019-02-28T18:48:57.240Z,10.42
2019-02-28T18:51:25.802Z,10.43
2019-02-28T18:53:54.480Z,10.50
2019-02-28T18:56:23.109Z,10.52
2019-02-28T18:58:51.708Z,10.45
2019-02-28T19:01:20.379Z,10.46
2019-02-28T19:03:49.080Z,10.48
2019-02-28T19:06:17.720Z,10.59
2019-02-28T19:08:46.326Z,10.48
2019-02-28T19:11:14.966Z,10.53
2019-02-28T19:13:43.611Z,10.48
2019-02-28T19:16:12.209Z,10.44
2019-02-28T19:18:40.764Z,10.49
2019-02-28T19:21:09.313Z,10.46
2019-02-28T19:23:38.085Z,10.36
2019-02-28T19:26:06.651Z,10.35
2019-02-28T19:28:35.132Z,10.36
2019-02-28T19:31:03.949Z,10.40
2019-02-28T19:33:32.575Z,10.39
2019-02-28T19:36:01.143Z,10.34
2019-02-28T19:38:29.779Z,10.34
2019-02-28T19:40:58.584Z,10.33
2019-02-28T19:43:27.263Z,10.33
2019-02-28T19:45:56.633Z,10.40
2019-02-28T19:48:25.300Z,10.35
2019-02-28T19:50:53.883Z,10.26
2019-02-28T19:53:22.504Z,10.27
2019-02-28T19:55:51.088Z,10.26
2019-02-28T19:58:19.718Z,10.34
2019-02-28T20:00:48.344Z,10.28
2019-02-28T20:03:16.993Z,10.31
2019-02-28T20:05:45.632Z,10.23
2019-02-28T20:08:14.325Z,10.15
2019-02-28T20:10:43.216Z,10.08
2019-02-28T20:13:11.848Z,10.12
2019-02-28T20:15:41.941Z,10.15
2019-02-28T20:18:11.160Z,10.28
2019-02-28T20:20:49.104Z,10.39
2019-02-28T20:23:17.790Z,10.41
2019-02-28T20:25:46.408Z,10.51
2019-02-28T20:28:15.038Z,10.52
2019-02-28T20:30:44.152Z,10.50
2019-02-28T20:33:12.873Z,10.52
2019-02-28T20:35:41.489Z,10.52
2019-02-28T20:38:10.160Z,10.40
2019-02-28T20:40:39.288Z,10.47
2019-02-28T20:43:07.927Z,10.33
2019-02-28T20:45:36.594Z,10.50
2019-02-28T20:48:05.220Z,10.52
2019-02-28T20:50:42.566Z,10.56
2019-02-28T20:53:11.188Z,10.51
2019-02-28T20:55:39.808Z,10.50
2019-02-28T20:58:08.471Z,10.67
2019-02-28T21:00:37.037Z,10.58
2019-02-28T21:03:05.759Z,10.49
2019-02-28T21:05:34.365Z,10.46
2019-02-28T21:08:03.074Z,10.39
2019-02-28T21:10:31.701Z,10.35
2019-02-28T21:13:00.222Z,10.50
2019-02-28T21:15:28.820Z,10.50
2019-02-28T21:17:57.375Z,10.44
2019-02-28T21:20:34.979Z,10.37
2019-02-28T21:23:03.599Z,10.26
2019-02-28T21:25:32.195Z,10.27
2019-02-28T21:28:00.702Z,10.23
2019-02-28T21:30:29.350Z,10.14
2019-02-28T21:32:58.053Z,10.16
2019-02-28T21:35:26.935Z,10.26
2019-02-28T21:37:55.559Z,9.96
2019-02-28T21:40:24.752Z,9.12
2019-02-28T21:42:53.439Z,7.71
2019-02-28T21:45:24.004Z,7.19
2019-02-28T21:47:52.628Z,6.91
2019-02-28T21:50:21.499Z,6.77
2019-02-28T21:52:50.124Z,6.50
2019-02-28T21:55:18.857Z,6.28
2019-02-28T21:57:47.458Z,6.24
2019-02-28T22:00:30.581Z,6.30
2019-02-28T22:02:59.114Z,6.39
2019-02-28T22:05:27.751Z,6.27
2019-02-28T22:07:56.372Z,6.12
2019-02-28T22:10:25.060Z,5.99
2019-02-28T22:12:53.620Z,5.92
2019-02-28T22:15:23.377Z,5.87
2019-02-28T22:17:52.021Z,5.75
2019-02-28T22:20:20.648Z,5.71
2019-02-28T22:22:49.133Z,5.66
2019-02-28T22:25:18.095Z,5.63
2019-02-28T22:27:46.707Z,5.57
2019-02-28T22:30:22.320Z,5.47
2019-02-28T22:32:52.455Z,5.40
2019-02-28T22:35:22.656Z,5.38
2019-02-28T22:37:51.247Z,5.29
2019-02-28T22:40:19.797Z,5.31
2019-02-28T22:42:48.429Z,5.19
2019-02-28T22:45:17.094Z,5.10
2019-02-28T22:47:45.658Z,5.10
2019-02-28T22:50:14.274Z,5.17
2019-02-28T22:52:42.941Z,5.02
2019-02-28T22:55:11.564Z,5.04
2019-02-28T22:57:40.056Z,5.06
2019-02-28T23:00:43.461Z,5.15
2019-02-28T23:03:12.079Z,5.08
2019-02-28T23:05:40.636Z,5.08
2019-02-28T23:08:09.473Z,5.10
2019-02-28T23:10:38.015Z,5.02
2019-02-28T23:13:06.653Z,4.98
2019-02-28T23:15:35.313Z,4.82
2019-02-28T23:18:03.867Z,4.75
2019-02-28T23:20:32.447Z,4.66
2019-02-28T23:23:00.973Z,4.64
2019-02-28T23:25:29.539Z,4.61
2019-02-28T23:28:12.443Z,4.58
2019-02-28T23:31:17.090Z,4.55
2019-02-28T23:33:45.960Z,4.50
2019-02-28T23:36:14.511Z,4.48
2019-02-28T23:38:43.140Z,4.43
2019-02-28T23:41:11.952Z,4.31
2019-02-28T23:43:40.508Z,4.32
2019-02-28T23:46:09.054Z,4.37
2019-02-28T23:48:37.891Z,4.35
2019-02-28T23:51:06.523Z,4.43
2019-02-28T23:53:35.004Z,4.54
2019-02-28T23:56:03.863Z,4.63
2019-02-28T23:58:32.439Z,4.71
